KFTN

Carrizo Springs

Carrizo Springs, Texas, USA
METAR KFTN 171015Z AUTO 06004KT 10SM OVC065 01/M09 A3069 RMK A01
Observed Flight Rules
Jan-17 @ 10:15 UTC (16 minutes ago) Visual Flight Rules
Wind Visibility Clouds
60° at 4 knots 10 miles
  • Overcast at 6,500' AGL
Temperatures Readings
Current 1°C / 34°F
Dewpoint -9°C / 16°F
Humidity 48%
Altimeter 30.69" Hg
Pressure 1039 hPa
Elevation 236
METAR KFTN 171015Z AUTO 06004KT 10SM OVC065 01/M09 A3069 RMK A01
Observed Flight Rules
Jan-17 @ 10:15 UTC
(16 minutes ago)
VFR
Wind Visibility
60° at 4 knots 10 miles
Clouds
  • Overcast at 6,500' AGL
Temperature Dewpoint
1°C / 34°F -9°C / 16°F
Humidity Altimeter Pressure
48% 30.69" Hg 1039 hPa